sensor_id;sensor_type;location;lat;lon;timestamp;pressure;altitude;pressure_sealevel;temperature;humidity
29045;BME280;16133;49.486;12.176;2023-09-18T00:00:24;96922.78;;;11.93;100.00
29045;BME280;16133;49.486;12.176;2023-09-18T00:02:49;96910.75;;;11.97;100.00
29045;BME280;16133;49.486;12.176;2023-09-18T00:05:15;96909.72;;;11.98;100.00
29045;BME280;16133;49.486;12.176;2023-09-18T00:07:44;96907.06;;;11.98;100.00
29045;BME280;16133;49.486;12.176;2023-09-18T00:10:13;96899.28;;;11.97;100.00
29045;BME280;16133;49.486;12.176;2023-09-18T00:12:39;96896.22;;;11.93;100.00
29045;BME280;16133;49.486;12.176;2023-09-18T00:15:06;96891.69;;;11.87;100.00
29045;BME280;16133;49.486;12.176;2023-09-18T00:17:34;96888.63;;;11.84;100.00
29045;BME280;16133;49.486;12.176;2023-09-18T00:20:00;96888.22;;;11.80;100.00
29045;BME280;16133;49.486;12.176;2023-09-18T00:22:25;96884.09;;;11.78;100.00
29045;BME280;16133;49.486;12.176;2023-09-18T00:24:51;96886.31;;;11.74;100.00
29045;BME280;16133;49.486;12.176;2023-09-18T00:27:16;96871.78;;;11.70;100.00
29045;BME280;16133;49.486;12.176;2023-09-18T00:29:42;96869.50;;;11.67;100.00
29045;BME280;16133;49.486;12.176;2023-09-18T00:32:08;96869.09;;;11.64;100.00
29045;BME280;16133;49.486;12.176;2023-09-18T00:34:33;96868.69;;;11.60;100.00
29045;BME280;16133;49.486;12.176;2023-09-18T00:36:58;96854.97;;;11.57;100.00
29045;BME280;16133;49.486;12.176;2023-09-18T00:39:27;96856.16;;;11.54;100.00
29045;BME280;16133;49.486;12.176;2023-09-18T00:41:52;96853.72;;;11.52;100.00
29045;BME280;16133;49.486;12.176;2023-09-18T00:44:25;96849.44;;;11.51;100.00
29045;BME280;16133;49.486;12.176;2023-09-18T00:46:53;96851.25;;;11.51;100.00
29045;BME280;16133;49.486;12.176;2023-09-18T00:49:21;96847.78;;;11.50;100.00
29045;BME280;16133;49.486;12.176;2023-09-18T00:51:47;96848.00;;;11.49;100.00
29045;BME280;16133;49.486;12.176;2023-09-18T00:54:15;96839.19;;;11.48;100.00
29045;BME280;16133;49.486;12.176;2023-09-18T00:56:43;96833.47;;;11.45;100.00
29045;BME280;16133;49.486;12.176;2023-09-18T00:59:09;96827.53;;;11.43;100.00
29045;BME280;16133;49.486;12.176;2023-09-18T01:01:35;96826.69;;;11.42;100.00
29045;BME280;16133;49.486;12.176;2023-09-18T01:04:01;96819.97;;;11.40;100.00
29045;BME280;16133;49.486;12.176;2023-09-18T01:06:27;96825.66;;;11.37;100.00
29045;BME280;16133;49.486;12.176;2023-09-18T01:08:55;96826.69;;;11.36;100.00
29045;BME280;16133;49.486;12.176;2023-09-18T01:11:36;96828.72;;;11.34;100.00
29045;BME280;16133;49.486;12.176;2023-09-18T01:16:47;96816.88;;;11.30;100.00
29045;BME280;16133;49.486;12.176;2023-09-18T01:19:16;96817.28;;;11.27;100.00
29045;BME280;16133;49.486;12.176;2023-09-18T01:21:41;96811.97;;;11.27;100.00
29045;BME280;16133;49.486;12.176;2023-09-18T01:24:06;96798.88;;;11.25;100.00
29045;BME280;16133;49.486;12.176;2023-09-18T01:26:32;96798.22;;;11.23;100.00
29045;BME280;16133;49.486;12.176;2023-09-18T01:28:57;96787.00;;;11.28;100.00
29045;BME280;16133;49.486;12.176;2023-09-18T01:31:23;96790.72;;;11.27;100.00
29045;BME280;16133;49.486;12.176;2023-09-18T01:33:48;96779.63;;;11.23;100.00
29045;BME280;16133;49.486;12.176;2023-09-18T01:36:16;96778.03;;;11.22;100.00
29045;BME280;16133;49.486;12.176;2023-09-18T01:38:43;96774.72;;;11.20;100.00
29045;BME280;16133;49.486;12.176;2023-09-18T01:41:09;96772.28;;;11.19;100.00
29045;BME280;16133;49.486;12.176;2023-09-18T01:43:34;96776.78;;;11.18;100.00
29045;BME280;16133;49.486;12.176;2023-09-18T01:46:00;96778.81;;;11.16;100.00
29045;BME280;16133;49.486;12.176;2023-09-18T01:48:26;96779.63;;;11.17;100.00
29045;BME280;16133;49.486;12.176;2023-09-18T01:50:51;96775.97;;;11.18;100.00
29045;BME280;16133;49.486;12.176;2023-09-18T01:53:17;96781.25;;;11.18;100.00
29045;BME280;16133;49.486;12.176;2023-09-18T01:55:42;96776.97;;;11.17;100.00
29045;BME280;16133;49.486;12.176;2023-09-18T01:58:07;96772.66;;;11.16;100.00
29045;BME280;16133;49.486;12.176;2023-09-18T02:00:34;96777.38;;;11.14;100.00
29045;BME280;16133;49.486;12.176;2023-09-18T02:02:59;96779.38;;;11.12;100.00
29045;BME280;16133;49.486;12.176;2023-09-18T02:05:25;96783.91;;;11.11;100.00
29045;BME280;16133;49.486;12.176;2023-09-18T02:07:50;96779.78;;;11.09;100.00
29045;BME280;16133;49.486;12.176;2023-09-18T02:10:16;96776.53;;;11.07;100.00
29045;BME280;16133;49.486;12.176;2023-09-18T02:12:41;96775.06;;;11.04;100.00
29045;BME280;16133;49.486;12.176;2023-09-18T02:15:07;96769.97;;;11.02;100.00
29045;BME280;16133;49.486;12.176;2023-09-18T02:17:35;96769.34;;;11.00;100.00
29045;BME280;16133;49.486;12.176;2023-09-18T02:20:00;96766.06;;;10.98;100.00
29045;BME280;16133;49.486;12.176;2023-09-18T02:22:31;96755.84;;;10.95;100.00
29045;BME280;16133;49.486;12.176;2023-09-18T02:24:57;96755.22;;;10.93;100.00
29045;BME280;16133;49.486;12.176;2023-09-18T02:27:23;96755.03;;;10.95;100.00
29045;BME280;16133;49.486;12.176;2023-09-18T02:29:49;96752.16;;;10.96;100.00
29045;BME280;16133;49.486;12.176;2023-09-18T02:32:15;96747.69;;;10.97;100.00
29045;BME280;16133;49.486;12.176;2023-09-18T02:34:42;96744.00;;;10.98;100.00
29045;BME280;16133;49.486;12.176;2023-09-18T02:37:07;96750.56;;;11.02;100.00
29045;BME280;16133;49.486;12.176;2023-09-18T02:39:33;96740.78;;;11.02;100.00
29045;BME280;16133;49.486;12.176;2023-09-18T02:41:58;96748.91;;;11.01;100.00
29045;BME280;16133;49.486;12.176;2023-09-18T02:44:23;96748.09;;;11.00;100.00
29045;BME280;16133;49.486;12.176;2023-09-18T02:46:49;96743.81;;;10.99;100.00
29045;BME280;16133;49.486;12.176;2023-09-18T02:49:14;96755.47;;;10.98;100.00
29045;BME280;16133;49.486;12.176;2023-09-18T02:51:40;96747.91;;;10.95;100.00
29045;BME280;16133;49.486;12.176;2023-09-18T02:54:05;96730.88;;;10.83;100.00
29045;BME280;16133;49.486;12.176;2023-09-18T02:56:31;96748.47;;;10.91;100.00
29045;BME280;16133;49.486;12.176;2023-09-18T02:58:56;96745.81;;;10.91;100.00
29045;BME280;16133;49.486;12.176;2023-09-18T03:01:21;96735.41;;;10.89;100.00
29045;BME280;16133;49.486;12.176;2023-09-18T03:03:47;96738.28;;;10.88;100.00
29045;BME280;16133;49.486;12.176;2023-09-18T03:06:12;96750.91;;;10.86;100.00
29045;BME280;16133;49.486;12.176;2023-09-18T03:08:38;96750.50;;;10.89;100.00
29045;BME280;16133;49.486;12.176;2023-09-18T03:11:11;96752.34;;;10.88;100.00
29045;BME280;16133;49.486;12.176;2023-09-18T03:13:36;96749.72;;;10.88;100.00
29045;BME280;16133;49.486;12.176;2023-09-18T03:16:02;96735.78;;;10.86;100.00
29045;BME280;16133;49.486;12.176;2023-09-18T03:18:28;96747.25;;;10.87;100.00
29045;BME280;16133;49.486;12.176;2023-09-18T03:20:53;96736.44;;;10.88;100.00
29045;BME280;16133;49.486;12.176;2023-09-18T03:23:18;96731.31;;;10.87;100.00
29045;BME280;16133;49.486;12.176;2023-09-18T03:25:44;96730.88;;;10.83;100.00
29045;BME280;16133;49.486;12.176;2023-09-18T03:28:09;96729.25;;;10.82;100.00
29045;BME280;16133;49.486;12.176;2023-09-18T03:30:35;96733.94;;;10.80;100.00
29045;BME280;16133;49.486;12.176;2023-09-18T03:33:01;96725.34;;;10.78;100.00
29045;BME280;16133;49.486;12.176;2023-09-18T03:35:30;96715.75;;;10.77;100.00
29045;BME280;16133;49.486;12.176;2023-09-18T03:37:56;96726.56;;;10.76;100.00
29045;BME280;16133;49.486;12.176;2023-09-18T03:40:22;96722.28;;;10.75;100.00
29045;BME280;16133;49.486;12.176;2023-09-18T03:42:47;96718.19;;;10.72;100.00
29045;BME280;16133;49.486;12.176;2023-09-18T03:45:14;96714.72;;;10.72;100.00
29045;BME280;16133;49.486;12.176;2023-09-18T03:47:41;96710.41;;;10.71;100.00
29045;BME280;16133;49.486;12.176;2023-09-18T03:50:08;96702.66;;;10.69;100.00
29045;BME280;16133;49.486;12.176;2023-09-18T03:52:34;96690.41;;;10.68;100.00
29045;BME280;16133;49.486;12.176;2023-09-18T03:54:59;96686.94;;;10.68;100.00
29045;BME280;16133;49.486;12.176;2023-09-18T03:57:25;96676.50;;;10.66;100.00
29045;BME280;16133;49.486;12.176;2023-09-18T03:59:50;96681.22;;;10.64;100.00
29045;BME280;16133;49.486;12.176;2023-09-18T04:02:16;96686.69;;;10.63;100.00
29045;BME280;16133;49.486;12.176;2023-09-18T04:04:41;96685.09;;;10.62;100.00
29045;BME280;16133;49.486;12.176;2023-09-18T04:07:07;96680.38;;;10.64;100.00
29045;BME280;16133;49.486;12.176;2023-09-18T04:09:33;96683.03;;;10.64;100.00
29045;BME280;16133;49.486;12.176;2023-09-18T04:12:02;96679.38;;;10.65;100.00
29045;BME280;16133;49.486;12.176;2023-09-18T04:14:30;96672.63;;;10.62;100.00
29045;BME280;16133;49.486;12.176;2023-09-18T04:16:55;96676.09;;;10.63;100.00
29045;BME280;16133;49.486;12.176;2023-09-18T04:19:21;96674.06;;;10.65;100.00
29045;BME280;16133;49.486;12.176;2023-09-18T04:21:46;96664.28;;;10.65;100.00
29045;BME280;16133;49.486;12.176;2023-09-18T04:24:11;96666.31;;;10.63;100.00
29045;BME280;16133;49.486;12.176;2023-09-18T04:26:37;96657.75;;;10.61;100.00
29045;BME280;16133;49.486;12.176;2023-09-18T04:29:03;96661.41;;;10.60;100.00
29045;BME280;16133;49.486;12.176;2023-09-18T04:31:28;96645.88;;;10.57;100.00
29045;BME280;16133;49.486;12.176;2023-09-18T04:33:55;96644.25;;;10.56;100.00
29045;BME280;16133;49.486;12.176;2023-09-18T04:36:20;96641.59;;;10.56;100.00
29045;BME280;16133;49.486;12.176;2023-09-18T04:38:46;96638.09;;;10.55;100.00
29045;BME280;16133;49.486;12.176;2023-09-18T04:41:11;96638.09;;;10.55;100.00
29045;BME280;16133;49.486;12.176;2023-09-18T04:43:37;96639.13;;;10.54;100.00
29045;BME280;16133;49.486;12.176;2023-09-18T04:46:05;96637.28;;;10.55;100.00
29045;BME280;16133;49.486;12.176;2023-09-18T04:48:31;96646.25;;;10.54;100.00
29045;BME280;16133;49.486;12.176;2023-09-18T04:50:57;96645.47;;;10.53;100.00
29045;BME280;16133;49.486;12.176;2023-09-18T04:53:23;96640.16;;;10.53;100.00
29045;BME280;16133;49.486;12.176;2023-09-18T04:55:49;96637.53;;;10.60;100.00
29045;BME280;16133;49.486;12.176;2023-09-18T04:58:15;96635.47;;;10.62;100.00
29045;BME280;16133;49.486;12.176;2023-09-18T05:00:41;96628.97;;;10.65;100.00
29045;BME280;16133;49.486;12.176;2023-09-18T05:03:07;96633.06;;;10.67;100.00
29045;BME280;16133;49.486;12.176;2023-09-18T05:05:36;96630.63;;;10.72;100.00
29045;BME280;16133;49.486;12.176;2023-09-18T05:08:02;96634.53;;;10.76;100.00
29045;BME280;16133;49.486;12.176;2023-09-18T05:10:30;96632.06;;;10.81;100.00
29045;BME280;16133;49.486;12.176;2023-09-18T05:12:55;96624.34;;;10.86;100.00
29045;BME280;16133;49.486;12.176;2023-09-18T05:15:24;96607.81;;;10.91;100.00
29045;BME280;16133;49.486;12.176;2023-09-18T05:17:51;96617.22;;;11.00;100.00
29045;BME280;16133;49.486;12.176;2023-09-18T05:20:21;96611.94;;;11.07;100.00
29045;BME280;16133;49.486;12.176;2023-09-18T05:22:49;96612.13;;;11.12;100.00
29045;BME280;16133;49.486;12.176;2023-09-18T05:25:15;96606.63;;;11.20;100.00
29045;BME280;16133;49.486;12.176;2023-09-18T05:27:41;96601.94;;;11.28;100.00
29045;BME280;16133;49.486;12.176;2023-09-18T05:30:20;96588.47;;;11.36;100.00
29045;BME280;16133;49.486;12.176;2023-09-18T05:32:47;96584.78;;;11.44;100.00
29045;BME280;16133;49.486;12.176;2023-09-18T05:35:13;96582.31;;;11.56;100.00
29045;BME280;16133;49.486;12.176;2023-09-18T05:37:39;96589.69;;;11.73;100.00
29045;BME280;16133;49.486;12.176;2023-09-18T05:40:10;96582.69;;;11.92;100.00
29045;BME280;16133;49.486;12.176;2023-09-18T05:42:36;96587.97;;;12.12;100.00
29045;BME280;16133;49.486;12.176;2023-09-18T05:45:02;96574.59;;;12.31;100.00
29045;BME280;16133;49.486;12.176;2023-09-18T05:47:30;96572.69;;;12.52;100.00
29045;BME280;16133;49.486;12.176;2023-09-18T05:49:57;96566.84;;;12.74;100.00
29045;BME280;16133;49.486;12.176;2023-09-18T05:52:22;96551.13;;;12.98;100.00
29045;BME280;16133;49.486;12.176;2023-09-18T05:54:49;96542.38;;;13.22;100.00
29045;BME280;16133;49.486;12.176;2023-09-18T05:57:14;96534.59;;;13.45;100.00
29045;BME280;16133;49.486;12.176;2023-09-18T05:59:40;96533.75;;;13.69;100.00
29045;BME280;16133;49.486;12.176;2023-09-18T06:02:09;96531.84;;;13.95;100.00
29045;BME280;16133;49.486;12.176;2023-09-18T06:04:34;96514.00;;;14.13;100.00
29045;BME280;16133;49.486;12.176;2023-09-18T06:07:03;96516.22;;;14.34;100.00
29045;BME280;16133;49.486;12.176;2023-09-18T06:09:28;96505.28;;;14.54;100.00
29045;BME280;16133;49.486;12.176;2023-09-18T06:11:53;96502.13;;;14.75;100.00
29045;BME280;16133;49.486;12.176;2023-09-18T06:14:19;96498.91;;;14.97;100.00
29045;BME280;16133;49.486;12.176;2023-09-18T06:16:44;96485.38;;;15.21;100.00
29045;BME280;16133;49.486;12.176;2023-09-18T06:19:09;96483.41;;;15.40;100.00
29045;BME280;16133;49.486;12.176;2023-09-18T06:21:35;96493.66;;;15.55;100.00
29045;BME280;16133;49.486;12.176;2023-09-18T06:24:00;96499.56;;;15.68;100.00
29045;BME280;16133;49.486;12.176;2023-09-18T06:26:26;96506.88;;;15.85;100.00
29045;BME280;16133;49.486;12.176;2023-09-18T06:28:51;96517.34;;;15.98;100.00
29045;BME280;16133;49.486;12.176;2023-09-18T06:31:18;96519.75;;;16.11;100.00
29045;BME280;16133;49.486;12.176;2023-09-18T06:33:43;96524.94;;;16.29;100.00
29045;BME280;16133;49.486;12.176;2023-09-18T06:36:09;96522.13;;;16.47;100.00
29045;BME280;16133;49.486;12.176;2023-09-18T06:38:34;96527.41;;;16.70;100.00
29045;BME280;16133;49.486;12.176;2023-09-18T06:40:59;96541.25;;;16.96;100.00
29045;BME280;16133;49.486;12.176;2023-09-18T06:43:25;96549.19;;;17.19;100.00
29045;BME280;16133;49.486;12.176;2023-09-18T06:45:50;96558.06;;;17.36;100.00
29045;BME280;16133;49.486;12.176;2023-09-18T06:48:16;96587.34;;;17.54;100.00
29045;BME280;16133;49.486;12.176;2023-09-18T06:50:42;96624.69;;;17.73;100.00
29045;BME280;16133;49.486;12.176;2023-09-18T06:53:08;96662.59;;;17.93;100.00
29045;BME280;16133;49.486;12.176;2023-09-18T06:55:34;96712.13;;;18.02;100.00
29045;BME280;16133;49.486;12.176;2023-09-18T06:57:59;96752.56;;;18.12;100.00
29045;BME280;16133;49.486;12.176;2023-09-18T07:00:25;96781.72;;;18.20;100.00
29045;BME280;16133;49.486;12.176;2023-09-18T07:02:51;96799.03;;;18.29;100.00
29045;BME280;16133;49.486;12.176;2023-09-18T07:05:16;96808.66;;;18.42;100.00
29045;BME280;16133;49.486;12.176;2023-09-18T07:07:41;96818.78;;;18.51;100.00
29045;BME280;16133;49.486;12.176;2023-09-18T07:10:07;96840.47;;;18.61;100.00
29045;BME280;16133;49.486;12.176;2023-09-18T07:12:33;96840.59;;;18.72;100.00
29045;BME280;16133;49.486;12.176;2023-09-18T07:15:02;96829.53;;;18.85;100.00
29045;BME280;16133;49.486;12.176;2023-09-18T07:17:29;96842.06;;;18.96;100.00
29045;BME280;16133;49.486;12.176;2023-09-18T07:19:54;96858.59;;;19.04;100.00
29045;BME280;16133;49.486;12.176;2023-09-18T07:22:20;96855.75;;;19.11;100.00
29045;BME280;16133;49.486;12.176;2023-09-18T07:24:45;96866.59;;;19.16;100.00
29045;BME280;16133;49.486;12.176;2023-09-18T07:27:11;96858.50;;;19.16;100.00
29045;BME280;16133;49.486;12.176;2023-09-18T07:29:36;96857.09;;;19.14;100.00
29045;BME280;16133;49.486;12.176;2023-09-18T07:32:02;96862.16;;;19.10;100.00
29045;BME280;16133;49.486;12.176;2023-09-18T07:34:27;96872.28;;;19.03;100.00
29045;BME280;16133;49.486;12.176;2023-09-18T07:36:53;96879.13;;;18.94;100.00
29045;BME280;16133;49.486;12.176;2023-09-18T07:39:20;96884.44;;;18.89;100.00
29045;BME280;16133;49.486;12.176;2023-09-18T07:41:46;96891.44;;;18.90;100.00
29045;BME280;16133;49.486;12.176;2023-09-18T07:44:17;96879.38;;;18.92;100.00
29045;BME280;16133;49.486;12.176;2023-09-18T07:46:43;96880.28;;;18.98;100.00
29045;BME280;16133;49.486;12.176;2023-09-18T07:49:09;96891.94;;;19.03;100.00
29045;BME280;16133;49.486;12.176;2023-09-18T07:51:34;96887.50;;;19.14;100.00
29045;BME280;16133;49.486;12.176;2023-09-18T07:53:59;96880.97;;;19.27;100.00
29045;BME280;16133;49.486;12.176;2023-09-18T07:56:25;96887.16;;;19.44;100.00
29045;BME280;16133;49.486;12.176;2023-09-18T07:58:50;96883.19;;;19.68;100.00
29045;BME280;16133;49.486;12.176;2023-09-18T08:01:16;96888.13;;;19.98;100.00
29045;BME280;16133;49.486;12.176;2023-09-18T08:03:42;96887.19;;;20.31;100.00
29045;BME280;16133;49.486;12.176;2023-09-18T08:06:07;96891.03;;;20.67;100.00
29045;BME280;16133;49.486;12.176;2023-09-18T08:08:33;96884.28;;;20.96;100.00
29045;BME280;16133;49.486;12.176;2023-09-18T08:11:06;96894.94;;;21.13;95.76
29045;BME280;16133;49.486;12.176;2023-09-18T08:13:33;96872.88;;;21.16;94.37
29045;BME280;16133;49.486;12.176;2023-09-18T08:15:58;96887.22;;;21.26;93.20
29045;BME280;16133;49.486;12.176;2023-09-18T08:18:24;96880.78;;;21.32;94.22
29045;BME280;16133;49.486;12.176;2023-09-18T08:20:52;96887.84;;;21.38;93.71
29045;BME280;16133;49.486;12.176;2023-09-18T08:23:17;96878.94;;;21.43;91.91
29045;BME280;16133;49.486;12.176;2023-09-18T08:25:43;96871.97;;;21.47;91.56
29045;BME280;16133;49.486;12.176;2023-09-18T08:28:08;96871.16;;;21.46;90.46
29045;BME280;16133;49.486;12.176;2023-09-18T08:30:34;96872.25;;;21.45;90.29
29045;BME280;16133;49.486;12.176;2023-09-18T08:32:59;96878.16;;;21.42;88.96
29045;BME280;16133;49.486;12.176;2023-09-18T08:35:24;96875.44;;;21.37;89.28
29045;BME280;16133;49.486;12.176;2023-09-18T08:37:54;96882.66;;;21.32;89.75
29045;BME280;16133;49.486;12.176;2023-09-18T08:40:20;96896.94;;;21.27;90.97
29045;BME280;16133;49.486;12.176;2023-09-18T08:42:47;96903.16;;;21.28;92.02
29045;BME280;16133;49.486;12.176;2023-09-18T08:45:23;96898.84;;;21.27;92.95
29045;BME280;16133;49.486;12.176;2023-09-18T08:47:51;96897.47;;;21.24;93.52
29045;BME280;16133;49.486;12.176;2023-09-18T08:50:17;96901.50;;;21.22;92.76
29045;BME280;16133;49.486;12.176;2023-09-18T08:52:43;96894.75;;;21.19;92.74
29045;BME280;16133;49.486;12.176;2023-09-18T08:55:10;96893.13;;;21.18;93.09
29045;BME280;16133;49.486;12.176;2023-09-18T08:57:36;96881.25;;;21.19;93.19
29045;BME280;16133;49.486;12.176;2023-09-18T09:00:03;96877.22;;;21.22;93.44
29045;BME280;16133;49.486;12.176;2023-09-18T09:02:33;96871.06;;;21.31;93.52
29045;BME280;16133;49.486;12.176;2023-09-18T09:04:58;96862.72;;;21.33;94.24
29045;BME280;16133;49.486;12.176;2023-09-18T09:07:25;96858.66;;;21.35;94.05
29045;BME280;16133;49.486;12.176;2023-09-18T09:09:51;96854.38;;;21.34;93.24
29045;BME280;16133;49.486;12.176;2023-09-18T09:15:19;96848.72;;;21.41;92.55
29045;BME280;16133;49.486;12.176;2023-09-18T09:17:45;96850.66;;;21.45;92.38
29045;BME280;16133;49.486;12.176;2023-09-18T09:20:13;96845.78;;;21.48;92.14
29045;BME280;16133;49.486;12.176;2023-09-18T09:22:40;96846.34;;;21.55;93.00
29045;BME280;16133;49.486;12.176;2023-09-18T09:25:25;96841.81;;;21.60;93.25
29045;BME280;16133;49.486;12.176;2023-09-18T09:27:52;96836.94;;;21.62;92.07
29045;BME280;16133;49.486;12.176;2023-09-18T09:30:28;96835.63;;;21.65;91.50
29045;BME280;16133;49.486;12.176;2023-09-18T09:32:55;96829.44;;;21.69;90.88
29045;BME280;16133;49.486;12.176;2023-09-18T09:35:25;96829.72;;;21.73;89.78
29045;BME280;16133;49.486;12.176;2023-09-18T09:37:56;96799.41;;;21.61;91.14
29045;BME280;16133;49.486;12.176;2023-09-18T09:40:23;96831.88;;;21.81;91.76
29045;BME280;16133;49.486;12.176;2023-09-18T09:42:52;96825.16;;;21.83;91.21
29045;BME280;16133;49.486;12.176;2023-09-18T09:45:19;96832.47;;;21.88;91.45
29045;BME280;16133;49.486;12.176;2023-09-18T09:47:44;96831.97;;;21.91;90.43
29045;BME280;16133;49.486;12.176;2023-09-18T09:50:12;96841.69;;;21.97;89.79
29045;BME280;16133;49.486;12.176;2023-09-18T09:52:56;96846.06;;;22.03;89.33
29045;BME280;16133;49.486;12.176;2023-09-18T09:55:26;96841.72;;;22.02;87.96
29045;BME280;16133;49.486;12.176;2023-09-18T09:57:55;96840.91;;;22.02;88.41
29045;BME280;16133;49.486;12.176;2023-09-18T10:00:41;96833.34;;;21.99;89.18
29045;BME280;16133;49.486;12.176;2023-09-18T10:03:09;96824.41;;;21.93;90.34
29045;BME280;16133;49.486;12.176;2023-09-18T10:05:41;96820.91;;;21.98;90.37
29045;BME280;16133;49.486;12.176;2023-09-18T10:08:10;96818.50;;;22.06;88.12
29045;BME280;16133;49.486;12.176;2023-09-18T10:10:44;96821.22;;;22.11;88.29
29045;BME280;16133;49.486;12.176;2023-09-18T10:15:48;96808.25;;;22.23;89.57
29045;BME280;16133;49.486;12.176;2023-09-18T10:21:09;96812.88;;;22.38;88.45
29045;BME280;16133;49.486;12.176;2023-09-18T10:23:50;96820.97;;;22.43;87.82
29045;BME280;16133;49.486;12.176;2023-09-18T10:26:22;96818.03;;;22.50;86.42
29045;BME280;16133;49.486;12.176;2023-09-18T10:28:51;96817.19;;;22.54;87.53
29045;BME280;16133;49.486;12.176;2023-09-18T10:31:21;96816.13;;;22.65;87.39
29045;BME280;16133;49.486;12.176;2023-09-18T10:33:48;96815.34;;;22.75;86.81
29045;BME280;16133;49.486;12.176;2023-09-18T10:36:16;96813.19;;;22.87;87.01
29045;BME280;16133;49.486;12.176;2023-09-18T10:38:44;96800.97;;;23.05;86.50
29045;BME280;16133;49.486;12.176;2023-09-18T10:41:15;96792.56;;;23.21;84.35
29045;BME280;16133;49.486;12.176;2023-09-18T10:43:45;96798.16;;;23.50;83.76
29045;BME280;16133;49.486;12.176;2023-09-18T10:46:11;96787.75;;;23.83;80.13
29045;BME280;16133;49.486;12.176;2023-09-18T10:48:40;96784.06;;;24.17;79.30
29045;BME280;16133;49.486;12.176;2023-09-18T10:51:06;96794.59;;;24.58;78.52
29045;BME280;16133;49.486;12.176;2023-09-18T10:53:32;96803.56;;;24.92;75.80
29045;BME280;16133;49.486;12.176;2023-09-18T10:55:57;96786.47;;;25.20;74.52
29045;BME280;16133;49.486;12.176;2023-09-18T10:58:24;96800.72;;;25.60;72.81
29045;BME280;16133;49.486;12.176;2023-09-18T11:00:54;96800.78;;;25.97;71.36
29045;BME280;16133;49.486;12.176;2023-09-18T11:03:22;96807.50;;;26.42;69.50
29045;BME280;16133;49.486;12.176;2023-09-18T11:06:06;96802.16;;;26.88;65.30
29045;BME280;16133;49.486;12.176;2023-09-18T11:11:09;96803.41;;;27.69;61.98
29045;BME280;16133;49.486;12.176;2023-09-18T11:13:51;96803.38;;;27.96;61.21
29045;BME280;16133;49.486;12.176;2023-09-18T11:19:12;96796.25;;;28.36;58.08
29045;BME280;16133;49.486;12.176;2023-09-18T11:21:42;96798.84;;;28.41;56.83
29045;BME280;16133;49.486;12.176;2023-09-18T11:24:16;96794.38;;;28.45;57.46
29045;BME280;16133;49.486;12.176;2023-09-18T11:26:43;96794.56;;;28.49;57.08
29045;BME280;16133;49.486;12.176;2023-09-18T11:29:11;96794.56;;;28.49;59.80
29045;BME280;16133;49.486;12.176;2023-09-18T11:31:50;96796.81;;;28.47;56.95
29045;BME280;16133;49.486;12.176;2023-09-18T11:34:20;96797.94;;;28.46;56.44
29045;BME280;16133;49.486;12.176;2023-09-18T11:36:45;96799.09;;;28.31;53.43
29045;BME280;16133;49.486;12.176;2023-09-18T11:39:12;96803.44;;;28.32;54.06
29045;BME280;16133;49.486;12.176;2023-09-18T11:41:38;96802.91;;;28.44;54.97
29045;BME280;16133;49.486;12.176;2023-09-18T11:46:38;96807.47;;;28.71;53.48
29045;BME280;16133;49.486;12.176;2023-09-18T11:49:08;96815.47;;;28.89;52.99
29045;BME280;16133;49.486;12.176;2023-09-18T11:51:37;96811.84;;;29.03;52.48
29045;BME280;16133;49.486;12.176;2023-09-18T11:54:05;96812.38;;;29.05;51.55
29045;BME280;16133;49.486;12.176;2023-09-18T11:56:35;96817.25;;;28.94;51.28
29045;BME280;16133;49.486;12.176;2023-09-18T11:59:00;96821.63;;;28.73;50.13
29045;BME280;16133;49.486;12.176;2023-09-18T12:01:30;96822.88;;;28.53;49.71
29045;BME280;16133;49.486;12.176;2023-09-18T12:04:03;96825.56;;;28.31;51.63
29045;BME280;16133;49.486;12.176;2023-09-18T12:06:35;96817.09;;;28.19;51.09
29045;BME280;16133;49.486;12.176;2023-09-18T12:09:02;96814.91;;;28.21;50.43
29045;BME280;16133;49.486;12.176;2023-09-18T12:11:29;96829.13;;;28.18;50.23
29045;BME280;16133;49.486;12.176;2023-09-18T12:13:54;96831.78;;;27.82;51.54
29045;BME280;16133;49.486;12.176;2023-09-18T12:16:20;96837.53;;;27.67;51.79
29045;BME280;16133;49.486;12.176;2023-09-18T12:18:49;96829.75;;;27.46;51.69
29045;BME280;16133;49.486;12.176;2023-09-18T12:21:16;96834.31;;;27.19;52.34
29045;BME280;16133;49.486;12.176;2023-09-18T12:23:44;96848.94;;;27.23;52.56
29045;BME280;16133;49.486;12.176;2023-09-18T12:26:14;96837.97;;;27.28;53.20
29045;BME280;16133;49.486;12.176;2023-09-18T12:28:44;96844.31;;;27.37;53.66
29045;BME280;16133;49.486;12.176;2023-09-18T12:31:15;96840.16;;;27.58;54.66
29045;BME280;16133;49.486;12.176;2023-09-18T12:33:42;96840.06;;;27.77;53.95
29045;BME280;16133;49.486;12.176;2023-09-18T12:36:13;96847.63;;;27.80;54.00
29045;BME280;16133;49.486;12.176;2023-09-18T12:38:44;96846.09;;;27.60;53.72
29045;BME280;16133;49.486;12.176;2023-09-18T12:41:11;96853.09;;;27.66;53.97
29045;BME280;16133;49.486;12.176;2023-09-18T12:43:38;96864.88;;;27.62;53.38
29045;BME280;16133;49.486;12.176;2023-09-18T12:46:08;96858.47;;;27.39;53.65
29045;BME280;16133;49.486;12.176;2023-09-18T12:48:40;96857.47;;;27.35;53.32
29045;BME280;16133;49.486;12.176;2023-09-18T12:51:15;96861.06;;;27.30;53.68
29045;BME280;16133;49.486;12.176;2023-09-18T12:53:41;96852.81;;;27.35;53.51
29045;BME280;16133;49.486;12.176;2023-09-18T12:56:09;96852.50;;;27.37;53.63
29045;BME280;16133;49.486;12.176;2023-09-18T12:58:35;96862.44;;;27.46;54.97
29045;BME280;16133;49.486;12.176;2023-09-18T13:01:07;96864.78;;;27.53;53.42